sensor_id;sensor_type;location;lat;lon;timestamp;temperature;humidity
42095;DHT22;27753;55.724;37.612;2023-05-07T00:00:21;1.60;83.40
42095;DHT22;27753;55.724;37.612;2023-05-07T00:02:47;1.60;83.40
42095;DHT22;27753;55.724;37.612;2023-05-07T00:05:13;1.50;83.60
42095;DHT22;27753;55.724;37.612;2023-05-07T00:07:39;1.60;83.60
42095;DHT22;27753;55.724;37.612;2023-05-07T00:10:09;1.50;83.60
42095;DHT22;27753;55.724;37.612;2023-05-07T00:12:35;1.50;83.80
42095;DHT22;27753;55.724;37.612;2023-05-07T00:15:05;1.40;83.90
42095;DHT22;27753;55.724;37.612;2023-05-07T00:17:32;1.40;84.30
42095;DHT22;27753;55.724;37.612;2023-05-07T00:19:58;1.40;84.40
42095;DHT22;27753;55.724;37.612;2023-05-07T00:22:24;1.30;84.40
42095;DHT22;27753;55.724;37.612;2023-05-07T00:24:50;1.30;84.30
42095;DHT22;27753;55.724;37.612;2023-05-07T00:27:16;1.30;84.60
42095;DHT22;27753;55.724;37.612;2023-05-07T00:29:42;1.30;84.80
42095;DHT22;27753;55.724;37.612;2023-05-07T00:32:08;1.30;84.90
42095;DHT22;27753;55.724;37.612;2023-05-07T00:34:34;1.30;85.20
42095;DHT22;27753;55.724;37.612;2023-05-07T00:37:01;1.20;85.00
42095;DHT22;27753;55.724;37.612;2023-05-07T00:39:27;1.20;85.30
42095;DHT22;27753;55.724;37.612;2023-05-07T00:41:53;1.20;85.50
42095;DHT22;27753;55.724;37.612;2023-05-07T00:44:18;1.20;85.70
42095;DHT22;27753;55.724;37.612;2023-05-07T00:46:44;1.20;85.70
42095;DHT22;27753;55.724;37.612;2023-05-07T00:49:14;1.20;85.70
42095;DHT22;27753;55.724;37.612;2023-05-07T00:51:40;1.20;85.90
42095;DHT22;27753;55.724;37.612;2023-05-07T00:54:06;1.20;86.00
42095;DHT22;27753;55.724;37.612;2023-05-07T00:56:32;1.10;86.00
42095;DHT22;27753;55.724;37.612;2023-05-07T00:58:58;1.10;86.30
42095;DHT22;27753;55.724;37.612;2023-05-07T01:01:24;1.10;86.30
42095;DHT22;27753;55.724;37.612;2023-05-07T01:03:52;1.10;86.30
42095;DHT22;27753;55.724;37.612;2023-05-07T01:06:18;1.10;86.40
42095;DHT22;27753;55.724;37.612;2023-05-07T01:08:45;1.00;86.50
42095;DHT22;27753;55.724;37.612;2023-05-07T01:11:11;1.00;86.60
42095;DHT22;27753;55.724;37.612;2023-05-07T01:13:38;1.00;86.70
42095;DHT22;27753;55.724;37.612;2023-05-07T01:16:04;1.00;86.90
42095;DHT22;27753;55.724;37.612;2023-05-07T01:18:30;1.00;86.80
42095;DHT22;27753;55.724;37.612;2023-05-07T01:20:58;0.90;87.00
42095;DHT22;27753;55.724;37.612;2023-05-07T01:23:25;0.90;87.10
42095;DHT22;27753;55.724;37.612;2023-05-07T01:25:53;0.90;87.30
42095;DHT22;27753;55.724;37.612;2023-05-07T01:28:20;0.80;87.30
42095;DHT22;27753;55.724;37.612;2023-05-07T01:30:54;0.80;87.40
42095;DHT22;27753;55.724;37.612;2023-05-07T01:33:22;0.80;87.70
42095;DHT22;27753;55.724;37.612;2023-05-07T01:35:51;0.80;87.70
42095;DHT22;27753;55.724;37.612;2023-05-07T01:38:18;0.70;88.30
42095;DHT22;27753;55.724;37.612;2023-05-07T01:40:46;0.80;88.40
42095;DHT22;27753;55.724;37.612;2023-05-07T01:43:12;0.80;88.40
42095;DHT22;27753;55.724;37.612;2023-05-07T01:45:39;0.80;88.40
42095;DHT22;27753;55.724;37.612;2023-05-07T01:48:07;0.80;88.60
42095;DHT22;27753;55.724;37.612;2023-05-07T01:50:34;0.80;88.60
42095;DHT22;27753;55.724;37.612;2023-05-07T01:53:01;0.80;88.70
42095;DHT22;27753;55.724;37.612;2023-05-07T01:55:27;0.80;88.80
42095;DHT22;27753;55.724;37.612;2023-05-07T01:57:53;0.80;88.70
42095;DHT22;27753;55.724;37.612;2023-05-07T02:00:19;0.80;88.90
42095;DHT22;27753;55.724;37.612;2023-05-07T02:02:45;0.80;89.00
42095;DHT22;27753;55.724;37.612;2023-05-07T02:05:11;0.80;89.00
42095;DHT22;27753;55.724;37.612;2023-05-07T02:07:37;0.90;88.90
42095;DHT22;27753;55.724;37.612;2023-05-07T02:10:03;0.90;88.80
42095;DHT22;27753;55.724;37.612;2023-05-07T02:12:30;0.90;88.80
42095;DHT22;27753;55.724;37.612;2023-05-07T02:14:56;0.90;88.70
42095;DHT22;27753;55.724;37.612;2023-05-07T02:17:22;1.00;88.80
42095;DHT22;27753;55.724;37.612;2023-05-07T02:19:48;1.00;88.80
42095;DHT22;27753;55.724;37.612;2023-05-07T02:22:13;1.00;88.80
42095;DHT22;27753;55.724;37.612;2023-05-07T02:24:39;1.00;88.90
42095;DHT22;27753;55.724;37.612;2023-05-07T02:27:05;1.10;88.90
42095;DHT22;27753;55.724;37.612;2023-05-07T02:29:31;1.10;88.70
42095;DHT22;27753;55.724;37.612;2023-05-07T02:31:57;1.10;88.50
42095;DHT22;27753;55.724;37.612;2023-05-07T02:34:23;1.20;88.40
42095;DHT22;27753;55.724;37.612;2023-05-07T02:36:48;1.20;88.30
42095;DHT22;27753;55.724;37.612;2023-05-07T02:39:14;1.30;88.30
42095;DHT22;27753;55.724;37.612;2023-05-07T02:41:41;1.40;87.90
42095;DHT22;27753;55.724;37.612;2023-05-07T02:44:07;1.50;87.70
42095;DHT22;27753;55.724;37.612;2023-05-07T02:46:32;1.50;87.60
42095;DHT22;27753;55.724;37.612;2023-05-07T02:48:58;1.60;87.30
42095;DHT22;27753;55.724;37.612;2023-05-07T02:51:25;1.60;86.80
42095;DHT22;27753;55.724;37.612;2023-05-07T02:53:52;1.70;86.60
42095;DHT22;27753;55.724;37.612;2023-05-07T02:56:18;1.70;86.50
42095;DHT22;27753;55.724;37.612;2023-05-07T02:58:44;1.70;86.50
42095;DHT22;27753;55.724;37.612;2023-05-07T03:01:10;1.80;86.20
42095;DHT22;27753;55.724;37.612;2023-05-07T03:03:36;1.80;86.00
42095;DHT22;27753;55.724;37.612;2023-05-07T03:06:02;1.80;86.00
42095;DHT22;27753;55.724;37.612;2023-05-07T03:08:27;1.90;85.80
42095;DHT22;27753;55.724;37.612;2023-05-07T03:10:53;1.90;85.70
42095;DHT22;27753;55.724;37.612;2023-05-07T03:13:19;1.90;85.50
42095;DHT22;27753;55.724;37.612;2023-05-07T03:15:45;1.90;85.50
42095;DHT22;27753;55.724;37.612;2023-05-07T03:18:11;2.00;85.50
42095;DHT22;27753;55.724;37.612;2023-05-07T03:20:37;2.10;85.10
42095;DHT22;27753;55.724;37.612;2023-05-07T03:23:03;2.10;85.00
42095;DHT22;27753;55.724;37.612;2023-05-07T03:25:29;2.20;85.10
42095;DHT22;27753;55.724;37.612;2023-05-07T03:27:57;2.30;84.70
42095;DHT22;27753;55.724;37.612;2023-05-07T03:30:24;2.30;84.20
42095;DHT22;27753;55.724;37.612;2023-05-07T03:32:50;2.40;83.70
42095;DHT22;27753;55.724;37.612;2023-05-07T03:35:16;2.40;83.40
42095;DHT22;27753;55.724;37.612;2023-05-07T03:37:42;2.50;83.20
42095;DHT22;27753;55.724;37.612;2023-05-07T03:40:08;2.50;83.10
42095;DHT22;27753;55.724;37.612;2023-05-07T03:42:35;2.50;82.60
42095;DHT22;27753;55.724;37.612;2023-05-07T03:45:02;2.60;82.40
42095;DHT22;27753;55.724;37.612;2023-05-07T03:47:28;2.50;82.10
42095;DHT22;27753;55.724;37.612;2023-05-07T03:49:53;2.50;81.80
42095;DHT22;27753;55.724;37.612;2023-05-07T03:52:20;2.50;81.70
42095;DHT22;27753;55.724;37.612;2023-05-07T03:54:50;2.60;81.80
42095;DHT22;27753;55.724;37.612;2023-05-07T03:57:16;2.70;81.40
42095;DHT22;27753;55.724;37.612;2023-05-07T03:59:41;2.70;81.00
42095;DHT22;27753;55.724;37.612;2023-05-07T04:02:07;2.80;80.70
42095;DHT22;27753;55.724;37.612;2023-05-07T04:04:33;2.90;80.50
42095;DHT22;27753;55.724;37.612;2023-05-07T04:06:59;2.90;80.20
42095;DHT22;27753;55.724;37.612;2023-05-07T04:09:25;3.00;79.50
42095;DHT22;27753;55.724;37.612;2023-05-07T04:11:51;3.00;79.70
42095;DHT22;27753;55.724;37.612;2023-05-07T04:14:17;3.10;79.40
42095;DHT22;27753;55.724;37.612;2023-05-07T04:16:43;3.20;78.80
42095;DHT22;27753;55.724;37.612;2023-05-07T04:19:09;3.30;79.40
42095;DHT22;27753;55.724;37.612;2023-05-07T04:21:35;3.30;78.50
42095;DHT22;27753;55.724;37.612;2023-05-07T04:24:02;3.40;78.30
42095;DHT22;27753;55.724;37.612;2023-05-07T04:26:28;3.50;78.00
42095;DHT22;27753;55.724;37.612;2023-05-07T04:28:54;3.60;77.50
42095;DHT22;27753;55.724;37.612;2023-05-07T04:31:20;3.60;76.40
42095;DHT22;27753;55.724;37.612;2023-05-07T04:33:46;3.60;76.30
42095;DHT22;27753;55.724;37.612;2023-05-07T04:36:12;3.60;76.00
42095;DHT22;27753;55.724;37.612;2023-05-07T04:38:38;3.60;75.80
42095;DHT22;27753;55.724;37.612;2023-05-07T04:41:05;3.70;76.00
42095;DHT22;27753;55.724;37.612;2023-05-07T04:43:31;3.70;75.80
42095;DHT22;27753;55.724;37.612;2023-05-07T04:45:57;3.70;75.70
42095;DHT22;27753;55.724;37.612;2023-05-07T04:48:23;4.00;75.40
42095;DHT22;27753;55.724;37.612;2023-05-07T04:50:50;4.60;74.30
42095;DHT22;27753;55.724;37.612;2023-05-07T04:53:16;5.40;72.80
42095;DHT22;27753;55.724;37.612;2023-05-07T04:55:43;6.40;68.30
42095;DHT22;27753;55.724;37.612;2023-05-07T04:58:09;7.00;65.80
42095;DHT22;27753;55.724;37.612;2023-05-07T05:00:35;7.70;63.40
42095;DHT22;27753;55.724;37.612;2023-05-07T05:03:01;8.30;61.60
42095;DHT22;27753;55.724;37.612;2023-05-07T05:05:27;9.10;60.50
42095;DHT22;27753;55.724;37.612;2023-05-07T05:07:52;9.70;57.90
42095;DHT22;27753;55.724;37.612;2023-05-07T05:10:18;9.70;55.50
42095;DHT22;27753;55.724;37.612;2023-05-07T05:12:44;9.90;55.60
42095;DHT22;27753;55.724;37.612;2023-05-07T05:15:12;10.40;54.90
42095;DHT22;27753;55.724;37.612;2023-05-07T05:17:38;11.20;53.00
42095;DHT22;27753;55.724;37.612;2023-05-07T05:20:05;11.60;51.30
42095;DHT22;27753;55.724;37.612;2023-05-07T05:22:31;12.10;50.40
42095;DHT22;27753;55.724;37.612;2023-05-07T05:24:57;11.60;49.20
42095;DHT22;27753;55.724;37.612;2023-05-07T05:27:23;10.70;51.10
42095;DHT22;27753;55.724;37.612;2023-05-07T05:29:49;10.60;51.30
42095;DHT22;27753;55.724;37.612;2023-05-07T05:32:15;11.20;51.00
42095;DHT22;27753;55.724;37.612;2023-05-07T05:34:41;11.40;48.50
42095;DHT22;27753;55.724;37.612;2023-05-07T05:37:07;11.70;49.60
42095;DHT22;27753;55.724;37.612;2023-05-07T05:39:33;11.60;48.20
42095;DHT22;27753;55.724;37.612;2023-05-07T05:41:59;12.00;48.70
42095;DHT22;27753;55.724;37.612;2023-05-07T05:44:25;12.10;46.50
42095;DHT22;27753;55.724;37.612;2023-05-07T05:49:17;12.50;47.50
42095;DHT22;27753;55.724;37.612;2023-05-07T05:51:43;14.40;41.70
42095;DHT22;27753;55.724;37.612;2023-05-07T05:54:09;13.70;42.10
42095;DHT22;27753;55.724;37.612;2023-05-07T05:56:36;12.30;43.40
42095;DHT22;27753;55.724;37.612;2023-05-07T05:59:01;11.30;45.10
42095;DHT22;27753;55.724;37.612;2023-05-07T06:01:27;10.90;45.90
42095;DHT22;27753;55.724;37.612;2023-05-07T06:03:55;11.30;46.80
42095;DHT22;27753;55.724;37.612;2023-05-07T06:06:21;12.40;44.40
42095;DHT22;27753;55.724;37.612;2023-05-07T06:08:47;11.80;44.40
42095;DHT22;27753;55.724;37.612;2023-05-07T06:11:13;10.90;46.50
42095;DHT22;27753;55.724;37.612;2023-05-07T06:13:39;12.10;47.50
42095;DHT22;27753;55.724;37.612;2023-05-07T06:16:05;13.90;43.70
42095;DHT22;27753;55.724;37.612;2023-05-07T06:18:31;13.90;42.20
42095;DHT22;27753;55.724;37.612;2023-05-07T06:20:57;12.60;42.80
42095;DHT22;27753;55.724;37.612;2023-05-07T06:23:23;11.90;44.40
42095;DHT22;27753;55.724;37.612;2023-05-07T06:25:49;12.80;44.70
42095;DHT22;27753;55.724;37.612;2023-05-07T06:28:16;12.80;42.80
42095;DHT22;27753;55.724;37.612;2023-05-07T06:30:42;11.50;44.10
42095;DHT22;27753;55.724;37.612;2023-05-07T06:33:08;10.40;45.80
42095;DHT22;27753;55.724;37.612;2023-05-07T06:35:33;11.30;47.00
42095;DHT22;27753;55.724;37.612;2023-05-07T06:38:00;12.20;44.60
42095;DHT22;27753;55.724;37.612;2023-05-07T06:40:26;12.00;44.50
42095;DHT22;27753;55.724;37.612;2023-05-07T06:42:52;11.70;44.90
42095;DHT22;27753;55.724;37.612;2023-05-07T06:45:19;11.40;44.80
42095;DHT22;27753;55.724;37.612;2023-05-07T06:47:44;12.20;45.70
42095;DHT22;27753;55.724;37.612;2023-05-07T06:50:10;13.80;43.00
42095;DHT22;27753;55.724;37.612;2023-05-07T06:52:36;15.40;40.90
42095;DHT22;27753;55.724;37.612;2023-05-07T06:55:02;17.60;38.50
42095;DHT22;27753;55.724;37.612;2023-05-07T06:57:28;18.50;35.80
42095;DHT22;27753;55.724;37.612;2023-05-07T06:59:54;18.40;34.30
42095;DHT22;27753;55.724;37.612;2023-05-07T07:02:20;16.50;34.70
42095;DHT22;27753;55.724;37.612;2023-05-07T07:04:46;14.50;37.10
42095;DHT22;27753;55.724;37.612;2023-05-07T07:07:12;13.00;39.00
42095;DHT22;27753;55.724;37.612;2023-05-07T07:09:37;11.70;40.40
42095;DHT22;27753;55.724;37.612;2023-05-07T07:12:03;10.90;42.50
42095;DHT22;27753;55.724;37.612;2023-05-07T07:14:29;11.10;43.20
42095;DHT22;27753;55.724;37.612;2023-05-07T07:16:55;13.40;42.00
42095;DHT22;27753;55.724;37.612;2023-05-07T07:19:22;14.80;38.80
42095;DHT22;27753;55.724;37.612;2023-05-07T07:21:48;14.30;36.90
42095;DHT22;27753;55.724;37.612;2023-05-07T07:24:14;13.20;38.00
42095;DHT22;27753;55.724;37.612;2023-05-07T07:26:46;12.20;39.50
42095;DHT22;27753;55.724;37.612;2023-05-07T07:29:13;12.10;40.40
42095;DHT22;27753;55.724;37.612;2023-05-07T07:31:39;12.00;39.50
42095;DHT22;27753;55.724;37.612;2023-05-07T07:34:04;11.70;39.50
42095;DHT22;27753;55.724;37.612;2023-05-07T07:36:30;11.90;40.30
42095;DHT22;27753;55.724;37.612;2023-05-07T07:38:56;13.90;39.80
42095;DHT22;27753;55.724;37.612;2023-05-07T07:41:22;16.70;36.00
42095;DHT22;27753;55.724;37.612;2023-05-07T07:43:48;17.90;33.30
42095;DHT22;27753;55.724;37.612;2023-05-07T07:46:14;17.20;32.00
42095;DHT22;27753;55.724;37.612;2023-05-07T07:48:40;15.80;33.60
42095;DHT22;27753;55.724;37.612;2023-05-07T07:51:05;14.70;34.20
42095;DHT22;27753;55.724;37.612;2023-05-07T07:53:31;14.00;35.50
42095;DHT22;27753;55.724;37.612;2023-05-07T07:55:57;15.00;34.60
42095;DHT22;27753;55.724;37.612;2023-05-07T07:58:23;14.90;34.10
42095;DHT22;27753;55.724;37.612;2023-05-07T08:00:50;13.80;34.70
42095;DHT22;27753;55.724;37.612;2023-05-07T08:03:18;12.70;35.90
42095;DHT22;27753;55.724;37.612;2023-05-07T08:05:45;11.70;37.30
42095;DHT22;27753;55.724;37.612;2023-05-07T08:08:11;12.50;38.20
42095;DHT22;27753;55.724;37.612;2023-05-07T08:10:37;15.30;36.70
42095;DHT22;27753;55.724;37.612;2023-05-07T08:13:04;18.10;32.80
42095;DHT22;27753;55.724;37.612;2023-05-07T08:15:31;20.60;32.00
42095;DHT22;27753;55.724;37.612;2023-05-07T08:17:58;21.40;29.10
42095;DHT22;27753;55.724;37.612;2023-05-07T08:20:25;20.60;28.60
42095;DHT22;27753;55.724;37.612;2023-05-07T08:22:51;18.80;29.00
42095;DHT22;27753;55.724;37.612;2023-05-07T08:25:17;16.50;30.00
42095;DHT22;27753;55.724;37.612;2023-05-07T08:27:43;14.90;31.60
42095;DHT22;27753;55.724;37.612;2023-05-07T08:30:10;14.00;33.30
42095;DHT22;27753;55.724;37.612;2023-05-07T08:32:37;13.70;34.20
42095;DHT22;27753;55.724;37.612;2023-05-07T08:35:03;13.00;35.30
42095;DHT22;27753;55.724;37.612;2023-05-07T08:37:29;12.30;36.30
42095;DHT22;27753;55.724;37.612;2023-05-07T08:39:57;11.90;37.50
42095;DHT22;27753;55.724;37.612;2023-05-07T08:42:24;12.40;37.80
42095;DHT22;27753;55.724;37.612;2023-05-07T08:44:56;12.80;36.50
42095;DHT22;27753;55.724;37.612;2023-05-07T08:47:28;12.70;36.20
42095;DHT22;27753;55.724;37.612;2023-05-07T08:49:55;13.30;35.90
42095;DHT22;27753;55.724;37.612;2023-05-07T08:52:21;13.40;35.10
42095;DHT22;27753;55.724;37.612;2023-05-07T08:54:47;13.50;34.80
42095;DHT22;27753;55.724;37.612;2023-05-07T08:57:13;14.90;34.80
42095;DHT22;27753;55.724;37.612;2023-05-07T08:59:40;17.50;32.00
42095;DHT22;27753;55.724;37.612;2023-05-07T09:02:08;20.10;30.20
42095;DHT22;27753;55.724;37.612;2023-05-07T09:04:34;22.20;28.40
42095;DHT22;27753;55.724;37.612;2023-05-07T09:07:00;23.50;27.40
42095;DHT22;27753;55.724;37.612;2023-05-07T09:09:32;23.90;26.30
42095;DHT22;27753;55.724;37.612;2023-05-07T09:11:59;23.00;25.80
42095;DHT22;27753;55.724;37.612;2023-05-07T09:14:25;21.90;26.20
42095;DHT22;27753;55.724;37.612;2023-05-07T09:16:54;21.20;26.90
42095;DHT22;27753;55.724;37.612;2023-05-07T09:19:24;21.80;26.60
42095;DHT22;27753;55.724;37.612;2023-05-07T09:22:01;22.80;26.40
42095;DHT22;27753;55.724;37.612;2023-05-07T09:24:27;23.00;26.00
42095;DHT22;27753;55.724;37.612;2023-05-07T09:26:58;21.20;26.20
42095;DHT22;27753;55.724;37.612;2023-05-07T09:29:25;19.00;27.30
42095;DHT22;27753;55.724;37.612;2023-05-07T09:31:51;16.90;29.10
42095;DHT22;27753;55.724;37.612;2023-05-07T09:34:16;15.10;29.80
42095;DHT22;27753;55.724;37.612;2023-05-07T09:36:42;13.80;31.30
42095;DHT22;27753;55.724;37.612;2023-05-07T09:39:08;12.90;32.90
42095;DHT22;27753;55.724;37.612;2023-05-07T09:41:45;12.70;34.30
42095;DHT22;27753;55.724;37.612;2023-05-07T09:44:13;12.60;33.90
42095;DHT22;27753;55.724;37.612;2023-05-07T09:46:42;13.50;34.10
42095;DHT22;27753;55.724;37.612;2023-05-07T09:49:13;14.20;32.80
42095;DHT22;27753;55.724;37.612;2023-05-07T09:51:48;14.20;32.70
42095;DHT22;27753;55.724;37.612;2023-05-07T09:54:16;15.30;32.40
42095;DHT22;27753;55.724;37.612;2023-05-07T09:56:45;17.70;30.90
42095;DHT22;27753;55.724;37.612;2023-05-07T09:59:15;19.00;29.30
42095;DHT22;27753;55.724;37.612;2023-05-07T10:01:43;19.60;28.90
42095;DHT22;27753;55.724;37.612;2023-05-07T10:04:09;21.20;27.90
42095;DHT22;27753;55.724;37.612;2023-05-07T10:06:35;22.70;27.60
42095;DHT22;27753;55.724;37.612;2023-05-07T10:09:02;23.20;26.10
42095;DHT22;27753;55.724;37.612;2023-05-07T10:11:35;23.30;25.40
42095;DHT22;27753;55.724;37.612;2023-05-07T10:14:02;23.00;25.90
42095;DHT22;27753;55.724;37.612;2023-05-07T10:16:35;22.10;25.60
42095;DHT22;27753;55.724;37.612;2023-05-07T10:19:06;22.20;25.90
42095;DHT22;27753;55.724;37.612;2023-05-07T10:21:36;21.20;26.10
42095;DHT22;27753;55.724;37.612;2023-05-07T10:24:07;18.80;27.00
42095;DHT22;27753;55.724;37.612;2023-05-07T10:26:43;17.20;28.20
42095;DHT22;27753;55.724;37.612;2023-05-07T10:32:10;14.70;30.20
42095;DHT22;27753;55.724;37.612;2023-05-07T10:34:42;13.90;31.50
42095;DHT22;27753;55.724;37.612;2023-05-07T10:37:10;13.50;31.80
42095;DHT22;27753;55.724;37.612;2023-05-07T10:39:37;13.20;32.00
42095;DHT22;27753;55.724;37.612;2023-05-07T10:42:13;13.00;32.80
42095;DHT22;27753;55.724;37.612;2023-05-07T10:44:39;12.80;32.30
42095;DHT22;27753;55.724;37.612;2023-05-07T10:47:10;12.70;32.60
42095;DHT22;27753;55.724;37.612;2023-05-07T10:52:31;12.90;33.10
42095;DHT22;27753;55.724;37.612;2023-05-07T10:55:33;12.80;33.60
42095;DHT22;27753;55.724;37.612;2023-05-07T11:00:50;12.30;33.50
42095;DHT22;27753;55.724;37.612;2023-05-07T11:03:17;11.80;34.10
42095;DHT22;27753;55.724;37.612;2023-05-07T11:05:43;11.50;34.60
42095;DHT22;27753;55.724;37.612;2023-05-07T11:08:09;11.30;35.10
42095;DHT22;27753;55.724;37.612;2023-05-07T11:10:56;11.50;34.90
42095;DHT22;27753;55.724;37.612;2023-05-07T11:13:48;11.50;34.60
42095;DHT22;27753;55.724;37.612;2023-05-07T11:16:21;11.80;35.30
42095;DHT22;27753;55.724;37.612;2023-05-07T11:18:51;11.90;35.50
42095;DHT22;27753;55.724;37.612;2023-05-07T11:21:36;12.10;35.20
42095;DHT22;27753;55.724;37.612;2023-05-07T11:24:09;12.00;34.40
42095;DHT22;27753;55.724;37.612;2023-05-07T11:26:43;11.80;34.70
42095;DHT22;27753;55.724;37.612;2023-05-07T11:31:50;11.50;34.90
42095;DHT22;27753;55.724;37.612;2023-05-07T11:34:21;11.00;35.90
42095;DHT22;27753;55.724;37.612;2023-05-07T12:18:44;10.80;36.30
42095;DHT22;27753;55.724;37.612;2023-05-07T12:21:13;10.00;38.20
42095;DHT22;27753;55.724;37.612;2023-05-07T12:23:40;10.20;37.60
42095;DHT22;27753;55.724;37.612;2023-05-07T12:26:06;10.40;37.40
42095;DHT22;27753;55.724;37.612;2023-05-07T12:28:37;10.40;37.50
42095;DHT22;27753;55.724;37.612;2023-05-07T12:31:10;10.30;37.80
42095;DHT22;27753;55.724;37.612;2023-05-07T12:33:36;10.20;37.90
42095;DHT22;27753;55.724;37.612;2023-05-07T12:36:06;10.10;38.10
42095;DHT22;27753;55.724;37.612;2023-05-07T12:38:37;10.00;38.30
42095;DHT22;27753;55.724;37.612;2023-05-07T12:41:03;9.90;38.40
42095;DHT22;27753;55.724;37.612;2023-05-07T12:43:29;9.80;37.50
42095;DHT22;27753;55.724;37.612;2023-05-07T12:45:57;9.80;38.80
42095;DHT22;27753;55.724;37.612;2023-05-07T12:48:27;9.80;38.60
42095;DHT22;27753;55.724;37.612;2023-05-07T12:50:54;9.90;38.30
42095;DHT22;27753;55.724;37.612;2023-05-07T12:53:24;10.00;37.20
42095;DHT22;27753;55.724;37.612;2023-05-07T12:55:53;10.20;37.60
42095;DHT22;27753;55.724;37.612;2023-05-07T12:58:21;10.40;37.00
42095;DHT22;27753;55.724;37.612;2023-05-07T13:00:49;10.50;36.50
42095;DHT22;27753;55.724;37.612;2023-05-07T13:03:32;10.70;36.60
42095;DHT22;27753;55.724;37.612;2023-05-07T13:06:02;10.80;36.60
42095;DHT22;27753;55.724;37.612;2023-05-07T13:08:29;10.90;36.80
42095;DHT22;27753;55.724;37.612;2023-05-07T13:10:57;10.90;36.70
42095;DHT22;27753;55.724;37.612;2023-05-07T13:13:23;10.90;36.70
42095;DHT22;27753;55.724;37.612;2023-05-07T13:15:49;10.90;36.80
42095;DHT22;27753;55.724;37.612;2023-05-07T13:18:18;10.80;37.20
42095;DHT22;27753;55.724;37.612;2023-05-07T13:20:43;10.70;37.10
42095;DHT22;27753;55.724;37.612;2023-05-07T13:23:10;10.60;36.80
42095;DHT22;27753;55.724;37.612;2023-05-07T13:25:35;10.40;36.60
42095;DHT22;27753;55.724;37.612;2023-05-07T13:28:01;10.20;36.90
42095;DHT22;27753;55.724;37.612;2023-05-07T13:30:28;10.10;37.10
42095;DHT22;27753;55.724;37.612;2023-05-07T13:32:57;10.10;37.90
42095;DHT22;27753;55.724;37.612;2023-05-07T13:35:23;10.10;37.30
42095;DHT22;27753;55.724;37.612;2023-05-07T13:37:49;9.90;37.50
42095;DHT22;27753;55.724;37.612;2023-05-07T13:40:16;9.70;37.80
42095;DHT22;27753;55.724;37.612;2023-05-07T13:42:42;9.60;38.20
42095;DHT22;27753;55.724;37.612;2023-05-07T13:45:08;9.50;38.40
42095;DHT22;27753;55.724;37.612;2023-05-07T13:47:34;9.40;38.60
42095;DHT22;27753;55.724;37.612;2023-05-07T13:50:00;9.40;38.50
42095;DHT22;27753;55.724;37.612;2023-05-07T13:52:26;9.40;39.00
42095;DHT22;27753;55.724;37.612;2023-05-07T13:54:52;9.40;39.40
42095;DHT22;27753;55.724;37.612;2023-05-07T13:57:18;9.40;39.10
42095;DHT22;27753;55.724;37.612;2023-05-07T13:59:44;9.40;39.00
42095;DHT22;27753;55.724;37.612;2023-05-07T14:02:10;9.40;39.10
42095;DHT22;27753;55.724;37.612;2023-05-07T14:04:37;10.00;39.20
42095;DHT22;27753;55.724;37.612;2023-05-07T14:07:03;11.30;38.10
42095;DHT22;27753;55.724;37.612;2023-05-07T14:09:29;12.50;37.10
42095;DHT22;27753;55.724;37.612;2023-05-07T14:11:55;13.60;36.20
42095;DHT22;27753;55.724;37.612;2023-05-07T14:14:21;14.30;35.20
42095;DHT22;27753;55.724;37.612;2023-05-07T14:16:47;15.00;34.70
42095;DHT22;27753;55.724;37.612;2023-05-07T14:19:13;15.20;33.60
42095;DHT22;27753;55.724;37.612;2023-05-07T14:21:38;15.50;33.70
42095;DHT22;27753;55.724;37.612;2023-05-07T14:24:07;15.10;32.80
42095;DHT22;27753;55.724;37.612;2023-05-07T14:26:34;14.90;33.20
42095;DHT22;27753;55.724;37.612;2023-05-07T14:29:00;14.60;33.20
42095;DHT22;27753;55.724;37.612;2023-05-07T14:31:26;13.70;33.00
42095;DHT22;27753;55.724;37.612;2023-05-07T14:33:52;13.00;33.40
42095;DHT22;27753;55.724;37.612;2023-05-07T14:36:19;12.30;33.70
42095;DHT22;27753;55.724;37.612;2023-05-07T14:38:46;11.70;35.00
42095;DHT22;27753;55.724;37.612;2023-05-07T14:41:12;11.20;34.90
42095;DHT22;27753;55.724;37.612;2023-05-07T14:43:38;10.90;35.40
42095;DHT22;27753;55.724;37.612;2023-05-07T14:46:04;10.70;35.90
42095;DHT22;27753;55.724;37.612;2023-05-07T14:48:30;10.50;36.40
42095;DHT22;27753;55.724;37.612;2023-05-07T14:50:56;10.40;37.50
42095;DHT22;27753;55.724;37.612;2023-05-07T14:53:22;10.20;37.10
42095;DHT22;27753;55.724;37.612;2023-05-07T14:55:48;10.20;37.50
42095;DHT22;27753;55.724;37.612;2023-05-07T14:58:14;10.10;37.80
42095;DHT22;27753;55.724;37.612;2023-05-07T15:00:42;10.00;38.80
42095;DHT22;27753;55.724;37.612;2023-05-07T15:03:09;9.90;38.20
42095;DHT22;27753;55.724;37.612;2023-05-07T15:05:36;10.20;38.40
42095;DHT22;27753;55.724;37.612;2023-05-07T15:08:02;10.90;38.30
42095;DHT22;27753;55.724;37.612;2023-05-07T15:10:28;11.30;37.60
42095;DHT22;27753;55.724;37.612;2023-05-07T15:12:54;11.60;36.60
42095;DHT22;27753;55.724;37.612;2023-05-07T15:15:20;11.30;36.60
42095;DHT22;27753;55.724;37.612;2023-05-07T15:17:47;10.90;37.10
42095;DHT22;27753;55.724;37.612;2023-05-07T15:20:12;10.60;37.40
42095;DHT22;27753;55.724;37.612;2023-05-07T15:22:38;10.40;37.10
42095;DHT22;27753;55.724;37.612;2023-05-07T15:25:04;10.20;37.50
42095;DHT22;27753;55.724;37.612;2023-05-07T15:27:31;10.10;37.60
42095;DHT22;27753;55.724;37.612;2023-05-07T15:29:57;10.00;37.90
42095;DHT22;27753;55.724;37.612;2023-05-07T15:32:23;9.90;38.20
42095;DHT22;27753;55.724;37.612;2023-05-07T15:34:49;9.90;38.50
42095;DHT22;27753;55.724;37.612;2023-05-07T15:37:15;9.80;38.40
42095;DHT22;27753;55.724;37.612;2023-05-07T15:39:42;9.70;38.10
42095;DHT22;27753;55.724;37.612;2023-05-07T15:42:08;9.60;37.70
42095;DHT22;27753;55.724;37.612;2023-05-07T15:44:34;9.60;38.10
42095;DHT22;27753;55.724;37.612;2023-05-07T15:47:01;9.50;38.00
42095;DHT22;27753;55.724;37.612;2023-05-07T15:49:27;9.40;38.40
42095;DHT22;27753;55.724;37.612;2023-05-07T15:51:53;9.50;38.90
42095;DHT22;27753;55.724;37.612;2023-05-07T15:54:20;9.40;39.10
42095;DHT22;27753;55.724;37.612;2023-05-07T15:56:47;9.40;39.20
42095;DHT22;27753;55.724;37.612;2023-05-07T15:59:12;9.40;39.30
42095;DHT22;27753;55.724;37.612;2023-05-07T16:01:40;9.40;39.30
42095;DHT22;27753;55.724;37.612;2023-05-07T16:04:07;9.40;39.40
42095;DHT22;27753;55.724;37.612;2023-05-07T16:06:34;9.40;39.40
42095;DHT22;27753;55.724;37.612;2023-05-07T16:09:00;9.30;39.30
42095;DHT22;27753;55.724;37.612;2023-05-07T16:11:26;9.30;39.40
42095;DHT22;27753;55.724;37.612;2023-05-07T16:13:55;9.20;39.70
42095;DHT22;27753;55.724;37.612;2023-05-07T16:16:21;9.10;39.70